createdAt,value
2022-09-04T00:01:13.168Z,57.28
2022-09-04T00:06:28.800Z,59.72
2022-09-04T00:11:58.213Z,67.72
2022-09-04T00:17:17.940Z,59.22
2022-09-04T00:22:44.250Z,53.31
2022-09-04T00:28:01.277Z,55.84
2022-09-04T00:33:33.149Z,58.42
2022-09-04T00:39:01.753Z,60.11
2022-09-04T00:44:39.956Z,69.59
2022-09-04T00:50:02.145Z,60.50
2022-09-04T00:55:36.434Z,53.06
2022-09-04T01:00:40.811Z,54.98
2022-09-04T01:06:34.940Z,57.21
2022-09-04T01:12:09.387Z,58.77
2022-09-04T01:17:38.391Z,60.31
2022-09-04T01:23:11.106Z,68.17
2022-09-04T01:28:47.845Z,58.15
2022-09-04T01:34:31.888Z,53.58
2022-09-04T01:39:39.561Z,55.58
2022-09-04T01:44:43.742Z,58.72
2022-09-04T01:50:08.034Z,59.83
2022-09-04T01:55:40.420Z,60.16
2022-09-04T02:01:23.612Z,70.35
2022-09-04T02:06:52.389Z,59.64
2022-09-04T02:12:20.834Z,52.94
2022-09-04T02:17:53.111Z,55.23
2022-09-04T02:23:27.939Z,56.24
2022-09-04T02:29:02.930Z,58.13
2022-09-04T02:34:30.032Z,60.19
2022-09-04T02:40:12.630Z,69.89
2022-09-04T02:46:02.228Z,59.23
2022-09-04T02:51:39.323Z,53.50
2022-09-04T02:57:15.552Z,55.19
2022-09-04T03:02:52.172Z,57.33
2022-09-04T03:08:36.148Z,59.88
2022-09-04T03:14:20.978Z,68.57
2022-09-04T03:19:57.754Z,58.95
2022-09-04T03:25:41.491Z,53.27
2022-09-04T03:30:48.031Z,55.07
2022-09-04T03:36:15.443Z,58.01
2022-09-04T03:42:05.738Z,62.12
2022-09-04T03:47:38.317Z,66.82
2022-09-04T03:53:48.004Z,54.61
2022-09-04T04:00:22.656Z,54.86
2022-09-04T04:05:41.220Z,58.28
2022-09-04T04:10:57.450Z,64.95
2022-09-04T04:16:24.696Z,61.44
2022-09-04T04:22:19.701Z,53.11
2022-09-04T04:27:54.929Z,57.27
2022-09-04T04:33:43.074Z,59.35
2022-09-04T04:39:33.323Z,66.10
2022-09-04T04:45:25.791Z,55.51
2022-09-04T04:51:23.470Z,56.76
2022-09-04T04:56:47.131Z,60.17
2022-09-04T05:02:24.526Z,64.96
2022-09-04T05:08:15.533Z,55.42
2022-09-04T05:13:46.074Z,52.23
2022-09-04T05:19:07.397Z,55.26
2022-09-04T05:24:24.239Z,59.09
2022-09-04T05:29:35.768Z,61.16
2022-09-04T05:34:58.022Z,65.85
2022-09-04T05:40:30.677Z,53.61
2022-09-04T05:45:53.125Z,56.10
2022-09-04T05:51:03.259Z,58.40
2022-09-04T05:56:35.842Z,60.35
2022-09-04T06:02:12.026Z,60.30
2022-09-04T06:07:45.654Z,61.96
2022-09-04T06:13:03.585Z,62.96
2022-09-04T06:18:41.613Z,50.69
2022-09-04T06:24:20.642Z,53.54
2022-09-04T06:29:30.616Z,54.24
2022-09-04T06:34:55.117Z,55.58
2022-09-04T06:40:05.476Z,58.20
2022-09-04T06:46:03.560Z,57.98
2022-09-04T06:51:43.617Z,58.19
2022-09-04T06:57:00.537Z,57.33
2022-09-04T07:03:03.209Z,57.03
2022-09-04T07:08:50.134Z,56.55
2022-09-04T07:14:34.583Z,55.63
2022-09-04T07:20:17.910Z,54.44
2022-09-04T07:25:30.849Z,52.89
2022-09-04T07:31:06.251Z,52.59
2022-09-04T07:36:22.944Z,52.04
2022-09-04T07:42:04.898Z,49.97
2022-09-04T07:47:43.642Z,48.66
2022-09-04T07:53:33.830Z,48.21
2022-09-04T07:59:27.085Z,48.08
2022-09-04T08:05:25.565Z,46.52
2022-09-04T08:10:52.110Z,45.84
2022-09-04T08:16:18.686Z,45.61
2022-09-04T08:21:41.106Z,44.65
2022-09-04T08:27:44.357Z,45.49
2022-09-04T08:33:17.900Z,44.63
2022-09-04T08:38:38.305Z,44.80
2022-09-04T08:44:04.549Z,43.87
2022-09-04T08:50:08.913Z,43.25
2022-09-04T08:55:35.403Z,43.11
2022-09-04T09:01:22.484Z,42.52
2022-09-04T09:07:04.274Z,41.89
2022-09-04T09:12:40.754Z,40.67
2022-09-04T09:18:18.205Z,40.51
2022-09-04T09:24:05.089Z,39.73
2022-09-04T09:30:05.097Z,39.17
2022-09-04T09:35:10.497Z,37.72
2022-09-04T09:40:23.613Z,38.33
2022-09-04T09:46:01.695Z,38.25
2022-09-04T09:51:39.827Z,37.23
2022-09-04T09:57:19.072Z,37.28
2022-09-04T10:02:47.607Z,36.94
2022-09-04T10:08:35.609Z,36.55
2022-09-04T10:14:41.746Z,36.63
2022-09-04T10:20:31.290Z,36.51
2022-09-04T10:26:12.101Z,35.50
2022-09-04T10:31:21.745Z,34.30
2022-09-04T10:37:27.194Z,34.25
2022-09-04T10:43:10.919Z,32.83
2022-09-04T10:48:55.892Z,33.75
2022-09-04T10:54:54.787Z,33.85
2022-09-04T11:00:40.414Z,33.03
2022-09-04T11:06:12.117Z,32.96
2022-09-04T11:12:11.308Z,32.96
2022-09-04T11:17:51.882Z,32.66
2022-09-04T11:23:31.950Z,33.16
2022-09-04T11:29:02.373Z,32.78
2022-09-04T11:34:46.215Z,32.88
2022-09-04T11:41:08.138Z,33.39
2022-09-04T11:47:00.570Z,33.64
2022-09-04T11:52:41.447Z,33.03
2022-09-04T11:58:41.452Z,33.27
2022-09-04T12:04:24.336Z,33.71
2022-09-04T12:10:07.641Z,33.62
2022-09-04T12:15:23.909Z,33.21
2022-09-04T12:21:26.442Z,32.63
2022-09-04T12:26:59.839Z,32.22
2022-09-04T12:32:39.327Z,31.79
2022-09-04T12:38:20.501Z,31.51
2022-09-04T12:43:45.891Z,31.55
2022-09-04T12:49:26.893Z,32.10
2022-09-04T12:55:04.846Z,31.68
2022-09-04T13:00:18.294Z,31.18
2022-09-04T13:05:41.834Z,30.77
2022-09-04T13:11:30.091Z,30.81
2022-09-04T13:17:18.532Z,30.41
2022-09-04T13:22:57.803Z,30.56
2022-09-04T13:28:24.814Z,30.02
2022-09-04T13:33:42.359Z,29.93
2022-09-04T13:39:19.510Z,30.17
2022-09-04T13:45:06.482Z,30.37
2022-09-04T13:50:29.929Z,30.89
2022-09-04T13:55:58.122Z,31.12
2022-09-04T14:01:10.655Z,30.90
2022-09-04T14:06:21.358Z,30.97
2022-09-04T14:12:20.882Z,30.38
2022-09-04T14:17:44.100Z,29.74
2022-09-04T14:23:28.782Z,29.64
2022-09-04T14:28:53.891Z,29.67
2022-09-04T14:34:16.873Z,29.95
2022-09-04T14:39:44.071Z,29.92
2022-09-04T14:45:52.417Z,27.87
2022-09-04T14:51:11.851Z,24.33
2022-09-04T14:56:51.441Z,22.43
2022-09-04T15:02:11.555Z,21.00
2022-09-04T15:07:44.428Z,21.22
2022-09-04T15:13:35.339Z,20.80
2022-09-04T15:18:46.186Z,20.45
2022-09-04T15:24:40.606Z,20.16
2022-09-04T15:30:09.515Z,19.38
2022-09-04T15:35:33.875Z,19.57
2022-09-04T15:41:12.615Z,20.17
2022-09-04T15:46:44.621Z,20.49
2022-09-04T15:52:03.822Z,20.82
2022-09-04T15:57:34.943Z,21.16
2022-09-04T16:03:10.776Z,21.30
2022-09-04T16:08:39.206Z,20.70
2022-09-04T16:14:08.232Z,21.29
2022-09-04T16:19:43.213Z,21.48
2022-09-04T16:24:57.737Z,21.72
2022-09-04T16:30:08.886Z,21.98
2022-09-04T16:35:22.044Z,22.70
2022-09-04T16:40:47.189Z,23.05
2022-09-04T16:46:30.124Z,23.94
2022-09-04T16:51:48.176Z,24.84
2022-09-04T16:57:15.266Z,25.86
2022-09-04T17:02:35.866Z,26.87
2022-09-04T17:07:59.248Z,28.03
2022-09-04T17:13:13.058Z,29.89
2022-09-04T17:18:23.827Z,31.32
2022-09-04T17:29:02.473Z,32.43
2022-09-04T17:29:47.695Z,34.12
2022-09-04T17:40:43.288Z,35.66
2022-09-04T17:41:34.716Z,36.53
2022-09-04T17:47:14.378Z,37.77
2022-09-04T17:52:34.987Z,38.33
2022-09-04T17:57:57.035Z,38.97
2022-09-04T18:03:24.397Z,40.01
2022-09-04T18:08:50.291Z,41.13
2022-09-04T18:14:34.063Z,41.85
2022-09-04T18:20:01.637Z,42.24
2022-09-04T18:25:29.939Z,43.36
2022-09-04T18:37:10.378Z,43.85
2022-09-04T18:37:24.550Z,44.38
2022-09-04T18:47:59.878Z,44.85
2022-09-04T18:50:46.627Z,45.63
2022-09-04T18:54:23.979Z,45.10
2022-09-04T18:59:43.654Z,46.20
2022-09-04T19:05:01.921Z,46.95
2022-09-04T19:10:22.847Z,47.57
2022-09-04T19:15:57.069Z,48.22
2022-09-04T19:21:11.203Z,49.33
2022-09-04T19:26:39.927Z,49.91
2022-09-04T19:32:18.559Z,50.19
2022-09-04T19:41:46.094Z,50.60
2022-09-04T19:45:59.170Z,50.86
2022-09-04T19:53:22.409Z,51.70
2022-09-04T19:55:25.140Z,52.76
2022-09-04T20:00:43.498Z,53.07
2022-09-04T20:06:21.436Z,53.22
2022-09-04T20:11:47.069Z,53.95
2022-09-04T20:17:14.041Z,53.84
2022-09-04T20:22:54.596Z,54.31
2022-09-04T20:28:31.267Z,54.76
2022-09-04T20:33:47.926Z,55.35
2022-09-04T20:39:11.019Z,56.23
2022-09-04T20:44:55.205Z,57.11
2022-09-04T20:52:41.082Z,57.67
2022-09-04T20:59:23.657Z,58.51
2022-09-04T21:03:16.999Z,58.94
2022-09-04T21:08:14.055Z,59.66
2022-09-04T21:13:42.610Z,60.18
2022-09-04T21:19:29.100Z,60.07
2022-09-04T21:25:04.971Z,60.40
2022-09-04T21:30:24.176Z,70.55
2022-09-04T21:35:32.786Z,65.98
2022-09-04T21:41:37.704Z,54.95
2022-09-04T21:47:08.723Z,56.06
2022-09-04T21:52:36.331Z,56.37
2022-09-04T22:02:42.421Z,57.17
2022-09-04T22:04:17.199Z,59.58
2022-09-04T22:13:29.246Z,59.16
2022-09-04T22:16:19.139Z,59.92
2022-09-04T22:22:35.670Z,71.93
2022-09-04T22:28:34.759Z,64.27
2022-09-04T22:34:28.319Z,55.10
2022-09-04T22:40:28.115Z,56.90
2022-09-04T22:46:08.953Z,55.77
2022-09-04T22:52:12.172Z,60.31
2022-09-04T22:57:22.243Z,60.65
2022-09-04T23:13:43.837Z,74.12
2022-09-04T23:14:28.550Z,63.13
2022-09-04T23:26:31.358Z,55.76
2022-09-04T23:26:48.240Z,57.75
2022-09-04T23:31:37.238Z,61.11
2022-09-04T23:37:12.971Z,71.27
2022-09-04T23:43:28.468Z,60.54
2022-09-04T23:49:36.831Z,55.50
2022-09-04T23:55:25.500Z,57.94
